Time;durP1;ratioP1;P1;durP2;ratioP2;P2;SDS_P1;SDS_P2;PMS_P1;PMS_P2;Temp;Humidity;BMP_temperature;BMP_pressure;BME280_temperature;BME280_humidity;BME280_pressure;Samples;Min_cycle;Max_cycle;Signal;HPM_P1;HPM_P2
2023/09/18 00:00:17;;;;;;;8.80;3.00;;;20.40;99.90;;;;;;4248628;27;20389;-51
2023/09/18 00:02:19;;;;;;;5.57;2.90;;;20.40;99.90;;;;;;4248884;27;20054;-53
2023/09/18 00:04:21;;;;;;;5.50;2.60;;;20.40;99.90;;;;;;4248670;27;20039;-59
2023/09/18 00:06:25;;;;;;;4.30;2.58;;;20.40;99.90;;;;;;4248639;27;20050;-54
2023/09/18 00:08:28;;;;;;;5.07;2.67;;;20.40;99.90;;;;;;4247160;27;20062;-54
2023/09/18 00:10:31;;;;;;;5.53;2.70;;;20.40;99.90;;;;;;4230519;28;20521;-54
2023/09/18 00:12:33;;;;;;;7.85;3.13;;;20.30;99.90;;;;;;4248612;27;20068;-54
2023/09/18 00:14:35;;;;;;;3.80;2.47;;;20.30;99.90;;;;;;4248255;27;20076;-55
2023/09/18 00:16:37;;;;;;;3.88;2.58;;;20.30;99.90;;;;;;4248283;27;20048;-54
2023/09/18 00:18:58;;;;;;;4.43;3.13;;;20.30;99.90;;;;;;4248651;27;20352;-54
2023/09/18 00:21:01;;;;;;;8.10;3.63;;;20.30;99.90;;;;;;4248553;27;20051;-55
2023/09/18 00:23:03;;;;;;;5.55;3.83;;;20.20;99.90;;;;;;4247886;27;20043;-54
2023/09/18 00:25:07;;;;;;;5.00;3.80;;;20.20;99.90;;;;;;4249090;27;20058;-54
2023/09/18 00:27:11;;;;;;;5.75;3.47;;;20.20;99.90;;;;;;4249232;27;20047;-54
2023/09/18 00:29:13;;;;;;;6.68;3.70;;;20.20;99.90;;;;;;4248152;27;20051;-52
2023/09/18 00:31:15;;;;;;;6.63;3.67;;;20.20;99.90;;;;;;4247979;27;20134;-52
2023/09/18 00:33:19;;;;;;;8.30;3.90;;;20.20;99.90;;;;;;4248071;27;20104;-52
2023/09/18 00:35:23;;;;;;;8.10;3.97;;;20.10;99.90;;;;;;4247975;27;20110;-52
2023/09/18 00:37:25;;;;;;;6.18;4.05;;;20.20;99.90;;;;;;4247710;27;20401;-52
2023/09/18 00:39:27;;;;;;;7.90;3.60;;;20.10;99.90;;;;;;4247758;27;20050;-52
2023/09/18 00:41:30;;;;;;;5.10;3.50;;;20.10;99.90;;;;;;4248081;27;20043;-52
2023/09/18 00:43:33;;;;;;;6.95;3.33;;;20.10;99.90;;;;;;4247792;27;20049;-59
2023/09/18 00:45:39;;;;;;;7.53;2.97;;;20.10;99.90;;;;;;4247848;27;20070;-52
2023/09/18 00:47:41;;;;;;;5.55;2.65;;;20.00;99.90;;;;;;4248105;27;20424;-52
2023/09/18 00:49:48;;;;;;;5.30;3.03;;;20.00;99.90;;;;;;4247448;27;20059;-52
2023/09/18 00:51:50;;;;;;;5.38;2.97;;;20.00;99.90;;;;;;4247303;27;20047;-52
2023/09/18 00:53:53;;;;;;;4.47;2.85;;;20.00;99.90;;;;;;4248021;27;20485;-52
2023/09/18 00:55:57;;;;;;;5.93;2.45;;;20.00;99.90;;;;;;4229295;28;20101;-52
2023/09/18 00:58:01;;;;;;;5.10;1.98;;;19.90;99.90;;;;;;4247619;27;20051;-52
2023/09/18 01:00:05;;;;;;;7.50;2.33;;;19.90;99.90;;;;;;4247883;27;20393;-52
2023/09/18 01:02:08;;;;;;;7.25;2.50;;;19.90;99.90;;;;;;4247755;27;20039;-52
2023/09/18 01:04:13;;;;;;;5.35;2.17;;;19.80;99.90;;;;;;4247606;27;20047;-52
2023/09/18 01:06:15;;;;;;;7.70;2.58;;;19.90;99.90;;;;;;4247217;27;20453;-53
2023/09/18 01:08:17;;;;;;;5.63;2.17;;;19.80;99.90;;;;;;4247654;27;20055;-52
2023/09/18 01:10:24;;;;;;;5.63;2.35;;;19.80;99.90;;;;;;4247782;27;20043;-54
2023/09/18 01:12:36;;;;;;;3.88;2.20;;;19.80;99.90;;;;;;4247526;27;20043;-52
2023/09/18 01:14:47;;;;;;;4.57;2.50;;;19.80;99.90;;;;;;4247740;27;20043;-53
2023/09/18 01:16:54;;;;;;;5.05;1.95;;;19.90;99.90;;;;;;4247475;27;20092;-53
2023/09/18 01:18:56;;;;;;;5.28;2.42;;;19.80;99.90;;;;;;4247610;27;20055;-52
2023/09/18 01:20:58;;;;;;;5.40;2.38;;;19.70;99.90;;;;;;4247137;28;20134;-52
2023/09/18 01:23:02;;;;;;;4.68;2.20;;;19.70;99.90;;;;;;4247535;28;20375;-53
2023/09/18 01:25:06;;;;;;;4.43;2.00;;;19.70;99.90;;;;;;4247575;28;20485;-52
2023/09/18 01:27:10;;;;;;;4.43;2.25;;;19.70;99.90;;;;;;4247395;28;20476;-52
2023/09/18 01:29:13;;;;;;;4.90;1.90;;;19.70;99.90;;;;;;4247171;28;20054;-52
2023/09/18 01:31:17;;;;;;;4.78;2.10;;;19.70;99.90;;;;;;4247615;28;20283;-52
2023/09/18 01:33:21;;;;;;;4.73;2.13;;;19.70;99.90;;;;;;4247838;27;20104;-52
2023/09/18 01:35:29;;;;;;;4.65;1.83;;;19.70;99.90;;;;;;4250505;27;20467;-52
2023/09/18 01:37:32;;;;;;;4.30;1.80;;;19.70;99.90;;;;;;4251194;27;20047;-52
2023/09/18 01:39:36;;;;;;;3.92;1.80;;;19.70;99.90;;;;;;4251000;27;20043;-52
2023/09/18 01:41:40;;;;;;;5.28;1.90;;;19.80;99.90;;;;;;4250914;27;20072;-52
2023/09/18 01:43:42;;;;;;;4.40;1.67;;;19.80;99.90;;;;;;4250986;27;20396;-52
2023/09/18 01:45:45;;;;;;;2.58;1.48;;;19.80;99.90;;;;;;4251011;27;20043;-52
2023/09/18 01:47:47;;;;;;;3.88;1.63;;;19.70;99.90;;;;;;4250876;27;20108;-52
2023/09/18 01:49:50;;;;;;;5.88;1.63;;;19.70;99.90;;;;;;4250389;27;20075;-52
2023/09/18 01:51:52;;;;;;;3.92;1.27;;;19.70;99.90;;;;;;4251181;27;20051;-51
2023/09/18 01:53:55;;;;;;;5.38;1.60;;;19.70;99.90;;;;;;4251191;27;20073;-51
2023/09/18 01:55:58;;;;;;;4.95;1.60;;;19.70;99.90;;;;;;4250800;27;20393;-52
2023/09/18 01:58:00;;;;;;;3.35;1.55;;;19.80;99.90;;;;;;4250865;27;20048;-51
2023/09/18 02:00:07;;;;;;;3.28;1.55;;;19.70;99.90;;;;;;4250695;27;20393;-51
2023/09/18 02:02:11;;;;;;;4.50;1.80;;;19.70;99.90;;;;;;4250769;27;20043;-52
2023/09/18 02:04:17;;;;;;;3.80;1.60;;;19.60;99.90;;;;;;4250106;27;20404;-52
2023/09/18 02:06:42;;;;;;;5.78;1.80;;;19.60;99.90;;;;;;4250527;27;20074;-53
2023/09/18 02:08:44;;;;;;;3.10;1.73;;;19.60;99.90;;;;;;4250754;27;20043;-52
2023/09/18 02:10:47;;;;;;;3.65;1.52;;;19.70;99.90;;;;;;4250865;27;20047;-58
2023/09/18 02:12:50;;;;;;;3.55;1.80;;;19.70;99.90;;;;;;4250494;27;20043;-51
2023/09/18 02:14:53;;;;;;;4.35;1.77;;;19.70;99.90;;;;;;4250206;27;20043;-51
2023/09/18 02:16:55;;;;;;;2.45;1.63;;;19.70;99.90;;;;;;4250135;27;20047;-52
2023/09/18 02:18:57;;;;;;;3.78;1.80;;;19.60;99.90;;;;;;4249940;27;20049;-51
2023/09/18 02:20:59;;;;;;;2.22;1.38;;;19.60;99.90;;;;;;4250196;27;20420;-52
2023/09/18 02:23:01;;;;;;;9.05;1.77;;;19.50;99.90;;;;;;4250286;27;20054;-51
2023/09/18 02:25:05;;;;;;;4.05;1.98;;;19.50;99.90;;;;;;4250124;27;20043;-52
2023/09/18 02:27:07;;;;;;;2.95;1.60;;;19.50;99.90;;;;;;4250108;27;20050;-52
2023/09/18 02:29:11;;;;;;;4.13;1.63;;;19.50;99.90;;;;;;4250312;27;20062;-52
2023/09/18 02:31:14;;;;;;;5.15;1.48;;;19.50;99.90;;;;;;4250076;27;20047;-52
2023/09/18 02:33:16;;;;;;;5.85;1.88;;;19.50;99.90;;;;;;4249543;27;20130;-52
2023/09/18 02:35:18;;;;;;;3.65;1.80;;;19.50;99.90;;;;;;4249817;27;20491;-51
2023/09/18 02:37:20;;;;;;;3.22;1.73;;;19.50;99.90;;;;;;4231508;28;20569;-52
2023/09/18 02:39:22;;;;;;;4.95;1.40;;;19.50;99.90;;;;;;4249947;27;20102;-52
2023/09/18 02:41:25;;;;;;;6.07;1.58;;;19.40;99.90;;;;;;4250076;27;20401;-52
2023/09/18 02:43:27;;;;;;;3.08;1.65;;;19.40;99.90;;;;;;4249838;27;20054;-51
2023/09/18 02:45:30;;;;;;;2.42;1.75;;;19.50;99.90;;;;;;4249862;27;20050;-53
2023/09/18 02:47:33;;;;;;;3.17;1.83;;;19.50;99.90;;;;;;4249572;27;20050;-52
2023/09/18 02:49:36;;;;;;;4.22;1.90;;;19.40;99.90;;;;;;4249601;27;20055;-52
2023/09/18 02:51:38;;;;;;;3.15;1.98;;;19.40;99.90;;;;;;4249976;27;20047;-52
2023/09/18 02:53:40;;;;;;;3.65;1.77;;;19.30;99.90;;;;;;4249782;27;20043;-51
2023/09/18 02:55:43;;;;;;;3.83;1.90;;;19.30;99.90;;;;;;4249731;27;20096;-53
2023/09/18 02:57:45;;;;;;;4.80;1.90;;;19.30;99.90;;;;;;4249790;27;20100;-53
2023/09/18 02:59:47;;;;;;;4.00;2.10;;;19.30;99.90;;;;;;4249852;27;20043;-52
2023/09/18 03:01:51;;;;;;;3.97;1.90;;;19.30;99.90;;;;;;4249595;27;20047;-52
2023/09/18 03:03:53;;;;;;;5.07;1.75;;;19.30;99.90;;;;;;4249710;27;20465;-52
2023/09/18 03:06:01;;;;;;;5.95;2.30;;;19.20;99.90;;;;;;4249728;27;20040;-54
2023/09/18 03:08:03;;;;;;;3.50;1.85;;;19.20;99.90;;;;;;4231171;27;20043;-54
2023/09/18 03:10:07;;;;;;;4.30;1.85;;;19.20;99.90;;;;;;4249384;27;20118;-54
2023/09/18 03:12:09;;;;;;;3.45;1.95;;;19.10;99.90;;;;;;4249454;27;20047;-51
2023/09/18 03:14:11;;;;;;;4.65;1.88;;;19.10;99.90;;;;;;4249356;27;20063;-52
2023/09/18 03:16:14;;;;;;;5.28;2.00;;;19.10;99.90;;;;;;4248836;27;20056;-53
2023/09/18 03:18:18;;;;;;;6.35;2.00;;;19.10;99.90;;;;;;4249518;27;20130;-52
2023/09/18 03:20:23;;;;;;;5.03;2.05;;;19.10;99.90;;;;;;4249568;27;20047;-52
2023/09/18 03:22:25;;;;;;;4.05;1.98;;;19.10;99.90;;;;;;4249337;27;20050;-52
2023/09/18 03:24:28;;;;;;;7.00;2.17;;;19.10;99.90;;;;;;4249098;27;20123;-52
2023/09/18 03:26:30;;;;;;;6.32;2.47;;;19.10;99.90;;;;;;4249678;27;20047;-53
2023/09/18 03:28:32;;;;;;;5.78;2.25;;;19.10;99.90;;;;;;4249461;27;20118;-52
2023/09/18 03:30:34;;;;;;;4.95;1.92;;;19.10;99.90;;;;;;4248886;27;20400;-52
2023/09/18 03:32:37;;;;;;;6.00;1.83;;;19.00;99.90;;;;;;4248941;27;20040;-51
2023/09/18 03:34:40;;;;;;;5.80;1.85;;;19.00;99.90;;;;;;4249436;27;20050;-51
2023/09/18 03:36:44;;;;;;;4.65;1.85;;;19.00;99.90;;;;;;4249156;27;20077;-52
2023/09/18 03:38:46;;;;;;;4.28;1.92;;;19.00;99.90;;;;;;4230774;28;20124;-51
2023/09/18 03:40:48;;;;;;;8.18;2.08;;;19.00;99.90;;;;;;4248869;27;20062;-52
2023/09/18 03:42:51;;;;;;;6.88;2.28;;;19.00;99.90;;;;;;4248723;27;20070;-52
2023/09/18 03:44:53;;;;;;;5.45;2.00;;;19.00;99.90;;;;;;4248739;27;20043;-52
2023/09/18 03:46:55;;;;;;;6.05;2.30;;;19.00;99.90;;;;;;4248810;27;20043;-52
2023/09/18 03:48:58;;;;;;;4.25;2.10;;;19.00;99.90;;;;;;4248699;27;20485;-51
2023/09/18 03:51:01;;;;;;;3.55;1.95;;;19.00;99.90;;;;;;4248855;27;20047;-52
2023/09/18 03:53:03;;;;;;;5.10;1.80;;;19.00;99.90;;;;;;4248647;27;20442;-52
2023/09/18 03:55:06;;;;;;;3.38;1.80;;;19.00;99.90;;;;;;4248640;27;20119;-52
2023/09/18 03:57:09;;;;;;;5.47;2.00;;;19.00;99.90;;;;;;4248107;27;20454;-52
2023/09/18 03:59:11;;;;;;;4.00;2.15;;;18.90;99.90;;;;;;4248244;27;20790;-52
2023/09/18 04:01:14;;;;;;;7.03;1.90;;;18.90;99.90;;;;;;4248492;27;20047;-52
2023/09/18 04:03:16;;;;;;;5.47;1.90;;;18.90;99.90;;;;;;4248660;27;20077;-50
2023/09/18 04:05:18;;;;;;;3.75;2.03;;;18.90;99.90;;;;;;4248910;27;20139;-52
2023/09/18 04:07:22;;;;;;;8.25;2.70;;;18.90;99.90;;;;;;4230586;28;20044;-53
2023/09/18 04:09:25;;;;;;;4.70;2.30;;;18.90;99.90;;;;;;4248498;27;20088;-52
2023/09/18 04:11:28;;;;;;;5.40;2.30;;;18.90;99.90;;;;;;4248557;27;20039;-52
2023/09/18 04:13:30;;;;;;;6.40;2.20;;;18.90;99.90;;;;;;4248137;27;20047;-51
2023/09/18 04:15:32;;;;;;;5.65;2.15;;;18.90;99.90;;;;;;4248898;27;20380;-52
2023/09/18 04:17:35;;;;;;;7.35;2.58;;;18.90;99.90;;;;;;4248130;27;20428;-52
2023/09/18 04:19:37;;;;;;;5.63;1.73;;;18.90;99.90;;;;;;4248426;27;20576;-52
2023/09/18 04:21:39;;;;;;;4.82;2.00;;;18.90;99.90;;;;;;4230046;28;20421;-52
2023/09/18 04:23:43;;;;;;;5.40;2.15;;;18.90;99.90;;;;;;4248167;27;20480;-52
2023/09/18 04:25:45;;;;;;;5.55;2.67;;;18.90;99.90;;;;;;4229921;28;20097;-53
2023/09/18 04:27:51;;;;;;;3.58;2.40;;;18.90;99.90;;;;;;4248371;27;20393;-52
2023/09/18 04:29:53;;;;;;;7.95;2.67;;;18.90;99.90;;;;;;4247843;27;20039;-52
2023/09/18 04:31:55;;;;;;;5.00;2.00;;;18.90;99.90;;;;;;4248134;27;20047;-52
2023/09/18 04:33:57;;;;;;;8.88;2.88;;;18.90;99.90;;;;;;4248172;27;20546;-52
2023/09/18 04:36:00;;;;;;;6.22;2.65;;;18.90;99.90;;;;;;4248454;27;20043;-56
2023/09/18 04:38:02;;;;;;;7.82;2.67;;;18.90;99.90;;;;;;4248003;27;20051;-52
2023/09/18 04:40:13;;;;;;;3.83;2.55;;;18.90;99.90;;;;;;4247902;27;20043;-52
2023/09/18 04:42:16;;;;;;;6.00;2.38;;;18.90;99.90;;;;;;4247888;27;20047;-52
2023/09/18 04:44:18;;;;;;;6.40;2.55;;;18.90;99.90;;;;;;4247758;27;20496;-52
2023/09/18 04:46:20;;;;;;;5.35;2.65;;;18.90;99.90;;;;;;4247966;27;20055;-55
2023/09/18 04:48:22;;;;;;;6.78;2.60;;;18.90;99.90;;;;;;4247691;27;20420;-52
2023/09/18 04:50:26;;;;;;;7.20;2.47;;;18.90;99.90;;;;;;4229636;28;20047;-52
2023/09/18 04:52:28;;;;;;;8.70;3.37;;;18.90;99.90;;;;;;4248051;27;20070;-52
2023/09/18 04:54:31;;;;;;;7.80;3.22;;;18.90;99.90;;;;;;4247499;27;20047;-52
2023/09/18 04:56:34;;;;;;;5.30;2.30;;;18.90;99.90;;;;;;4248038;27;20053;-53
2023/09/18 04:58:37;;;;;;;6.15;2.40;;;18.90;99.90;;;;;;4247505;27;20050;-52
2023/09/18 05:00:39;;;;;;;5.00;2.42;;;18.90;99.90;;;;;;4229546;28;20092;-52
2023/09/18 05:02:41;;;;;;;5.88;2.88;;;18.90;99.90;;;;;;4247734;27;20053;-52
2023/09/18 05:04:44;;;;;;;9.95;2.65;;;18.90;99.90;;;;;;4247724;27;20060;-52
2023/09/18 05:06:46;;;;;;;6.75;3.00;;;18.90;99.90;;;;;;4247832;27;20059;-52
2023/09/18 05:08:48;;;;;;;5.90;2.58;;;18.90;99.90;;;;;;4246958;27;20418;-52
2023/09/18 05:10:50;;;;;;;7.53;2.40;;;18.90;99.90;;;;;;4247641;27;20062;-52
2023/09/18 05:12:58;;;;;;;5.35;2.50;;;18.90;99.90;;;;;;4247321;27;20047;-52
2023/09/18 05:15:01;;;;;;;5.18;2.78;;;18.90;99.90;;;;;;4247784;27;20111;-52
2023/09/18 05:17:03;;;;;;;6.63;3.03;;;18.90;99.90;;;;;;4247503;27;20100;-52
2023/09/18 05:19:05;;;;;;;8.50;2.97;;;18.90;99.90;;;;;;4247459;27;20078;-58
2023/09/18 05:21:10;;;;;;;9.57;2.53;;;18.90;99.90;;;;;;4247733;27;20047;-52
2023/09/18 05:23:12;;;;;;;5.70;2.63;;;18.90;99.90;;;;;;4229562;28;20054;-52
2023/09/18 05:25:17;;;;;;;8.93;2.88;;;18.90;99.90;;;;;;4247612;28;20391;-51
2023/09/18 05:27:19;;;;;;;11.38;3.20;;;18.90;99.90;;;;;;4247126;28;20068;-52
2023/09/18 05:29:22;;;;;;;6.75;2.72;;;18.90;99.90;;;;;;4247625;28;20062;-52
2023/09/18 05:31:25;;;;;;;4.93;3.00;;;18.90;99.90;;;;;;4247580;28;20054;-52
2023/09/18 05:33:28;;;;;;;6.15;2.90;;;19.00;99.90;;;;;;4247653;28;20075;-52
2023/09/18 05:35:30;;;;;;;6.18;3.17;;;19.00;99.90;;;;;;4247736;28;20051;-53
2023/09/18 05:37:33;;;;;;;5.45;2.50;;;19.00;99.90;;;;;;4229174;28;20520;-52
2023/09/18 05:39:35;;;;;;;8.35;3.00;;;19.00;99.90;;;;;;4247695;28;20115;-52
2023/09/18 05:41:37;;;;;;;7.07;3.17;;;19.00;99.90;;;;;;4229077;28;20453;-53
2023/09/18 05:43:40;;;;;;;9.10;3.38;;;19.00;99.90;;;;;;4247377;28;20054;-52
2023/09/18 05:45:44;;;;;;;9.75;2.92;;;19.00;99.90;;;;;;4247435;28;20035;-52
2023/09/18 05:47:46;;;;;;;7.38;3.05;;;19.00;99.90;;;;;;4247501;28;20039;-53
2023/09/18 05:49:48;;;;;;;8.50;3.10;;;19.00;99.90;;;;;;4247194;28;20126;-52
2023/09/18 05:51:51;;;;;;;6.68;3.20;;;19.10;99.90;;;;;;4247539;28;20055;-52
2023/09/18 05:53:53;;;;;;;10.25;3.38;;;19.10;99.90;;;;;;4247426;28;20546;-52
2023/09/18 05:55:57;;;;;;;8.05;3.17;;;19.10;99.90;;;;;;4246959;28;20043;-52
2023/09/18 05:57:59;;;;;;;7.28;2.78;;;19.10;99.90;;;;;;4247186;28;20420;-53
2023/09/18 06:00:06;;;;;;;9.65;3.47;;;19.20;99.90;;;;;;4247234;28;20047;-52
2023/09/18 06:02:10;;;;;;;6.18;3.30;;;19.20;99.90;;;;;;4247423;28;20051;-52
2023/09/18 06:04:12;;;;;;;8.57;3.58;;;19.10;99.90;;;;;;4247329;28;20073;-52
2023/09/18 06:06:15;;;;;;;7.80;3.40;;;19.20;99.90;;;;;;4247961;28;20046;-54
2023/09/18 06:08:18;;;;;;;7.63;3.17;;;19.30;99.90;;;;;;4248070;28;20039;-52
2023/09/18 06:10:21;;;;;;;10.25;3.30;;;19.30;99.90;;;;;;4247041;28;20500;-52
2023/09/18 06:12:23;;;;;;;8.20;3.17;;;19.30;99.90;;;;;;4247436;28;20067;-52
2023/09/18 06:14:25;;;;;;;8.52;3.28;;;19.30;99.90;;;;;;4247103;28;20043;-52
2023/09/18 06:16:29;;;;;;;7.43;3.22;;;19.30;99.90;;;;;;4247183;28;20387;-52
2023/09/18 06:18:35;;;;;;;8.82;3.85;;;19.30;99.90;;;;;;4247166;28;20047;-52
2023/09/18 06:20:37;;;;;;;7.35;3.42;;;19.40;99.90;;;;;;4249191;27;20043;-52
2023/09/18 06:22:40;;;;;;;7.95;3.78;;;19.40;99.90;;;;;;4250313;27;20126;-52
2023/09/18 06:24:43;;;;;;;9.85;3.85;;;19.40;99.90;;;;;;4249835;27;20043;-51
2023/09/18 06:26:45;;;;;;;18.85;3.65;;;19.30;99.90;;;;;;4250348;27;20103;-52
2023/09/18 06:28:47;;;;;;;7.63;3.97;;;19.30;99.90;;;;;;4250062;27;20043;-51
2023/09/18 06:30:53;;;;;;;7.68;3.33;;;19.40;99.90;;;;;;4250229;27;20039;-52
2023/09/18 06:32:56;;;;;;;10.25;3.42;;;19.30;99.90;;;;;;4250293;27;20476;-52
2023/09/18 06:35:00;;;;;;;11.65;3.60;;;19.40;99.90;;;;;;4250241;27;20046;-52
2023/09/18 06:37:04;;;;;;;9.93;3.20;;;19.40;99.90;;;;;;4249986;27;20492;-51
2023/09/18 06:39:07;;;;;;;14.52;4.18;;;19.40;99.90;;;;;;4249528;27;20051;-53
2023/09/18 06:41:09;;;;;;;11.60;3.63;;;19.40;99.90;;;;;;4249963;27;20438;-51
2023/09/18 06:43:12;;;;;;;13.15;3.40;;;19.50;99.90;;;;;;4250042;27;20051;-58
2023/09/18 06:45:14;;;;;;;8.43;3.53;;;19.50;99.90;;;;;;4250224;27;20146;-52
2023/09/18 06:47:16;;;;;;;10.50;4.10;;;19.50;99.90;;;;;;4249973;27;20096;-51
2023/09/18 06:49:18;;;;;;;14.13;4.22;;;19.50;99.90;;;;;;4231438;28;20055;-52
2023/09/18 06:51:23;;;;;;;7.90;3.90;;;19.50;99.90;;;;;;4231762;28;20044;-52
2023/09/18 06:53:44;;;;;;;8.82;3.83;;;19.60;99.90;;;;;;4249377;27;20047;-52
2023/09/18 06:55:47;;;;;;;16.38;3.90;;;19.60;99.90;;;;;;4249696;27;20079;-52
2023/09/18 06:57:51;;;;;;;15.05;4.47;;;19.70;99.90;;;;;;4249790;27;20050;-51
2023/09/18 06:59:53;;;;;;;;;;;19.70;99.90;;;;;;4250229;27;20043;-53
2023/09/18 07:01:56;;;;;;;17.05;5.38;;;19.60;99.90;;;;;;4249631;27;20390;-53
2023/09/18 07:03:59;;;;;;;9.45;4.40;;;19.60;99.90;;;;;;4249708;27;20429;-53
2023/09/18 07:06:04;;;;;;;8.52;4.05;;;19.60;99.90;;;;;;4249813;27;20043;-53
2023/09/18 07:08:11;;;;;;;11.07;4.32;;;19.70;99.90;;;;;;4249382;27;20236;-55
2023/09/18 07:10:14;;;;;;;11.15;4.28;;;19.80;99.90;;;;;;4249505;27;20126;-55
2023/09/18 07:12:18;;;;;;;13.35;3.90;;;19.90;99.90;;;;;;4249593;27;20058;-54
2023/09/18 07:14:20;;;;;;;9.85;3.75;;;20.00;99.90;;;;;;4249528;27;20413;-54
2023/09/18 07:16:22;;;;;;;10.90;4.38;;;20.00;99.90;;;;;;4249182;27;20039;-53
2023/09/18 07:18:25;;;;;;;12.55;4.00;;;20.10;99.90;;;;;;4249086;27;20092;-55
2023/09/18 07:20:27;;;;;;;13.60;4.78;;;20.10;99.90;;;;;;4249491;27;20073;-55
2023/09/18 07:22:29;;;;;;;10.75;3.95;;;20.20;99.90;;;;;;4248968;27;20118;-54
2023/09/18 07:24:33;;;;;;;10.35;4.43;;;20.20;99.90;;;;;;4249451;27;20512;-54
2023/09/18 07:26:35;;;;;;;11.48;4.25;;;20.20;99.90;;;;;;4249177;27;20405;-52
2023/09/18 07:28:38;;;;;;;9.32;4.10;;;20.30;99.90;;;;;;4249394;27;20039;-51
2023/09/18 07:30:40;;;;;;;11.23;4.03;;;20.40;99.90;;;;;;4249082;27;20057;-51
2023/09/18 07:32:43;;;;;;;8.68;3.78;;;20.40;99.90;;;;;;4248840;27;20373;-53
2023/09/18 07:34:47;;;;;;;10.05;3.85;;;20.40;99.90;;;;;;4249251;27;20088;-51
2023/09/18 07:36:53;;;;;;;8.82;3.70;;;20.50;99.90;;;;;;4248843;27;20073;-51
2023/09/18 07:38:56;;;;;;;16.48;5.68;;;20.50;99.90;;;;;;4249090;27;20047;-52
2023/09/18 07:40:59;;;;;;;8.23;3.85;;;20.40;99.90;;;;;;4249055;27;20043;-52
2023/09/18 07:43:02;;;;;;;8.95;3.90;;;20.50;99.90;;;;;;4230723;28;20115;-51
2023/09/18 07:45:05;;;;;;;14.30;4.05;;;20.50;99.90;;;;;;4249016;27;20051;-52
2023/09/18 07:47:07;;;;;;;12.10;3.70;;;20.50;99.90;;;;;;4248992;27;20462;-51
2023/09/18 07:49:09;;;;;;;9.30;3.63;;;20.60;99.90;;;;;;4248571;27;20055;-51
2023/09/18 07:51:12;;;;;;;10.77;4.00;;;20.60;99.90;;;;;;4230420;28;20085;-52
2023/09/18 07:53:16;;;;;;;16.23;3.80;;;20.60;99.90;;;;;;4248936;27;20062;-53
2023/09/18 07:55:19;;;;;;;17.90;4.30;;;20.50;99.90;;;;;;4248607;27;20050;-54
2023/09/18 07:57:23;;;;;;;10.73;3.70;;;20.60;99.90;;;;;;4248507;27;20050;-54
2023/09/18 07:59:25;;;;;;;9.17;3.53;;;20.60;99.90;;;;;;4248628;27;20382;-54
2023/09/18 08:01:27;;;;;;;10.55;3.60;;;20.60;99.90;;;;;;4248774;27;20446;-55
2023/09/18 08:03:32;;;;;;;8.38;3.80;;;20.60;99.90;;;;;;4248829;27;20070;-54
2023/09/18 08:05:34;;;;;;;8.60;3.50;;;20.70;99.90;;;;;;4248273;27;20051;-54
2023/09/18 08:07:37;;;;;;;8.55;3.33;;;20.80;99.90;;;;;;4248552;27;20239;-54
2023/09/18 08:09:39;;;;;;;12.27;3.55;;;20.90;99.90;;;;;;4248415;27;20051;-55
2023/09/18 08:11:42;;;;;;;10.80;3.20;;;21.00;99.90;;;;;;4248474;27;20042;-54
2023/09/18 08:13:50;;;;;;;9.40;2.83;;;21.00;99.90;;;;;;4248529;27;20043;-54
2023/09/18 08:15:52;;;;;;;8.68;3.75;;;21.10;99.90;;;;;;4248597;27;20039;-53
2023/09/18 08:17:55;;;;;;;10.65;3.42;;;21.10;99.90;;;;;;4248276;27;20078;-54
2023/09/18 08:19:58;;;;;;;8.57;3.20;;;21.20;99.90;;;;;;4248656;27;20107;-54
2023/09/18 08:22:00;;;;;;;13.18;3.70;;;21.30;99.90;;;;;;4248411;27;20054;-54
2023/09/18 08:24:06;;;;;;;11.20;3.47;;;21.30;99.90;;;;;;4230648;28;20040;-54
2023/09/18 08:26:08;;;;;;;15.07;3.60;;;21.20;99.90;;;;;;4248200;27;20047;-55
2023/09/18 08:28:10;;;;;;;12.23;3.13;;;21.20;99.90;;;;;;4248303;27;20092;-54
2023/09/18 08:30:14;;;;;;;12.25;3.35;;;21.00;99.90;;;;;;4248154;27;20095;-53
2023/09/18 08:32:17;;;;;;;7.27;3.27;;;21.00;99.90;;;;;;4248293;27;20051;-52
2023/09/18 08:34:23;;;;;;;12.73;3.40;;;21.10;99.90;;;;;;4248339;27;20443;-52
2023/09/18 08:36:30;;;;;;;9.43;3.28;;;21.00;99.90;;;;;;4247783;27;20054;-52
2023/09/18 08:38:32;;;;;;;15.07;3.30;;;21.10;99.90;;;;;;4248209;27;20489;-52
2023/09/18 08:40:37;;;;;;;11.45;3.25;;;21.10;99.90;;;;;;4248132;27;20385;-53
2023/09/18 08:42:44;;;;;;;14.48;3.63;;;21.20;99.90;;;;;;4248022;27;20040;-52
2023/09/18 08:44:50;;;;;;;10.95;3.17;;;21.20;99.90;;;;;;4248001;27;20168;-52
2023/09/18 08:46:54;;;;;;;7.70;2.90;;;21.20;99.90;;;;;;4248134;27;20047;-51
2023/09/18 08:48:58;;;;;;;9.50;3.05;;;21.20;99.90;;;;;;4247868;27;20047;-52
2023/09/18 08:51:01;;;;;;;6.78;2.90;;;21.30;99.90;;;;;;4247800;27;20050;-51
2023/09/18 08:53:04;;;;;;;8.50;3.13;;;21.30;99.90;;;;;;4247755;27;20053;-55
2023/09/18 08:55:08;;;;;;;10.23;3.40;;;21.30;99.90;;;;;;4248122;27;20051;-52
2023/09/18 08:57:12;;;;;;;17.33;3.95;;;21.30;99.90;;;;;;4248042;27;20100;-53
2023/09/18 08:59:14;;;;;;;9.88;3.30;;;21.40;99.90;;;;;;4247914;27;20051;-52
2023/09/18 09:01:17;;;;;;;8.32;3.05;;;21.50;99.90;;;;;;4247912;27;20492;-52
2023/09/18 09:03:21;;;;;;;8.32;3.00;;;21.50;99.90;;;;;;4247936;27;20054;-52
2023/09/18 09:05:25;;;;;;;9.25;3.10;;;21.40;99.90;;;;;;4247319;27;20066;-52
2023/09/18 09:07:31;;;;;;;9.30;3.10;;;21.40;99.90;;;;;;4247748;27;20070;-52
2023/09/18 09:09:33;;;;;;;10.07;2.97;;;21.40;99.90;;;;;;4247389;27;20039;-51
2023/09/18 09:11:35;;;;;;;8.20;2.60;;;21.30;99.90;;;;;;4247437;27;20043;-53
2023/09/18 09:13:38;;;;;;;4.93;2.38;;;21.30;99.90;;;;;;4247742;27;20054;-52
2023/09/18 09:15:48;;;;;;;8.07;2.75;;;21.30;99.90;;;;;;4247749;27;20511;-52
2023/09/18 09:17:52;;;;;;;9.75;2.60;;;21.30;99.90;;;;;;4247348;27;20047;-52
2023/09/18 09:20:08;;;;;;;8.20;2.92;;;21.30;99.90;;;;;;4247396;27;20127;-52
2023/09/18 09:22:20;;;;;;;6.55;2.80;;;21.40;99.90;;;;;;4247711;27;20456;-52
2023/09/18 09:24:37;;;;;;;16.77;3.78;;;21.60;99.90;;;;;;4247602;27;20386;-52
2023/09/18 09:26:40;;;;;;;10.02;3.53;;;21.70;99.90;;;;;;4247707;28;20465;-51
2023/09/18 09:28:43;;;;;;;12.43;3.15;;;21.60;99.90;;;;;;4247524;28;20047;-58
2023/09/18 09:30:45;;;;;;;12.27;2.58;;;21.70;99.90;;;;;;4247413;28;20385;-52
2023/09/18 09:32:51;;;;;;;7.63;2.70;;;21.70;99.90;;;;;;4247428;28;20171;-52
2023/09/18 09:35:00;;;;;;;6.18;2.63;;;21.70;99.90;;;;;;4248466;28;20039;-66
2023/09/18 09:37:04;;;;;;;7.93;3.08;;;21.80;99.90;;;;;;4248084;28;20446;-53
2023/09/18 09:39:06;;;;;;;13.80;2.78;;;21.80;99.90;;;;;;4247387;28;20048;-53
2023/09/18 09:41:14;;;;;;;5.63;2.60;;;21.90;99.90;;;;;;4247362;28;20426;-53
2023/09/18 09:43:16;;;;;;;7.72;2.85;;;21.80;99.90;;;;;;4247322;28;20051;-52
2023/09/18 09:45:18;;;;;;;7.95;2.53;;;21.80;99.90;;;;;;4247285;28;20180;-52
2023/09/18 09:47:20;;;;;;;12.27;2.50;;;21.80;99.90;;;;;;4247017;28;20069;-52
2023/09/18 09:49:24;;;;;;;10.90;2.47;;;21.80;99.90;;;;;;4247292;28;20079;-52
2023/09/18 09:51:29;;;;;;;7.65;2.40;;;21.80;99.90;;;;;;4247340;28;20166;-52
2023/09/18 09:53:44;;;;;;;;;;;21.90;99.90;;;;;;4247936;28;20109;-53
2023/09/18 09:55:54;;;;;;;7.53;2.63;;;21.80;99.90;;;;;;4250165;27;20014;-51
2023/09/18 09:57:59;;;;;;;8.88;2.42;;;21.80;99.90;;;;;;4250444;27;20331;-52
2023/09/18 10:00:26;;;;;;;5.75;2.65;;;21.90;99.90;;;;;;4250779;27;20127;-52
2023/09/18 10:02:28;;;;;;;5.20;2.22;;;22.00;99.90;;;;;;4250250;27;20055;-52
2023/09/18 10:04:35;;;;;;;8.48;2.85;;;22.00;99.90;;;;;;4250623;27;20043;-52
2023/09/18 10:06:41;;;;;;;8.75;2.22;;;22.10;99.90;;;;;;4250692;27;20047;-52
2023/09/18 10:08:43;;;;;;;9.27;2.10;;;22.20;99.90;;;;;;4250732;27;20047;-52
2023/09/18 10:10:48;;;;;;;5.70;2.15;;;22.20;99.50;;;;;;4250729;27;20408;-51
2023/09/18 10:12:50;;;;;;;6.53;2.35;;;22.20;99.60;;;;;;4250676;27;20476;-52
2023/09/18 10:14:55;;;;;;;6.03;1.92;;;22.20;99.60;;;;;;4250428;27;20507;-52
2023/09/18 10:17:11;;;;;;;5.30;1.95;;;22.30;99.50;;;;;;4250219;27;20050;-52
2023/09/18 10:19:23;;;;;;;7.03;2.40;;;22.30;99.10;;;;;;4250536;27;20409;-52
2023/09/18 10:21:31;;;;;;;3.53;2.35;;;22.20;99.10;;;;;;4250491;27;20130;-52
2023/09/18 10:23:44;;;;;;;8.73;2.13;;;22.20;99.30;;;;;;4250362;27;20047;-51
2023/09/18 10:25:48;;;;;;;3.35;1.85;;;22.20;98.80;;;;;;4250220;27;20063;-52
2023/09/18 10:27:58;;;;;;;3.53;2.33;;;22.30;98.90;;;;;;4250977;27;20043;-53
2023/09/18 10:30:05;;;;;;;4.88;2.40;;;22.30;99.00;;;;;;4251317;27;20043;-52
2023/09/18 10:32:08;;;;;;;6.15;1.90;;;22.40;98.60;;;;;;4250695;27;20071;-52
2023/09/18 10:34:12;;;;;;;4.28;2.08;;;22.40;98.50;;;;;;4250262;27;20113;-51
2023/09/18 10:36:17;;;;;;;3.25;2.00;;;22.40;98.40;;;;;;4250517;27;20153;-53
2023/09/18 10:38:20;;;;;;;6.72;2.92;;;22.50;98.20;;;;;;4249930;27;20043;-54
2023/09/18 10:40:28;;;;;;;5.18;2.30;;;22.50;98.10;;;;;;4232073;27;20517;-54
2023/09/18 10:42:30;;;;;;;7.43;2.28;;;22.50;98.20;;;;;;4250089;27;20043;-54